createdAt,value
2022-10-30T00:02:57.042Z,4.57
2022-10-30T00:07:59.721Z,4.18
2022-10-30T00:13:01.658Z,4.17
2022-10-30T00:18:03.537Z,4.90
2022-10-30T00:23:05.605Z,4.65
2022-10-30T00:28:07.745Z,4.90
2022-10-30T00:33:09.482Z,4.10
2022-10-30T00:38:11.153Z,4.23
2022-10-30T00:43:31.336Z,4.45
2022-10-30T00:48:33.648Z,4.32
2022-10-30T00:53:35.681Z,3.90
2022-10-30T00:58:43.197Z,4.53
2022-10-30T01:03:46.564Z,4.30
2022-10-30T01:08:48.950Z,4.75
2022-10-30T01:13:53.768Z,3.35
2022-10-30T01:19:09.529Z,4.07
2022-10-30T01:24:42.886Z,4.30
2022-10-30T01:29:59.378Z,3.80
2022-10-30T01:35:42.473Z,3.95
2022-10-30T01:40:44.987Z,3.67
2022-10-30T01:46:31.449Z,4.50
2022-10-30T01:51:56.093Z,4.78
2022-10-30T01:57:18.181Z,4.55
2022-10-30T02:02:20.241Z,3.63
2022-10-30T02:07:22.631Z,4.60
2022-10-30T02:12:24.933Z,3.78
2022-10-30T02:17:27.904Z,3.28
2022-10-30T02:22:29.625Z,5.00
2022-10-30T02:27:31.321Z,4.50
2022-10-30T02:32:32.998Z,3.65
2022-10-30T02:37:34.891Z,3.80
2022-10-30T02:42:36.612Z,2.70
2022-10-30T02:47:38.343Z,4.10
2022-10-30T02:52:40.124Z,3.53
2022-10-30T02:57:41.811Z,3.85
2022-10-30T03:02:43.524Z,3.20
2022-10-30T03:07:45.226Z,3.63
2022-10-30T03:12:46.916Z,2.97
2022-10-30T03:17:48.555Z,3.50
2022-10-30T03:22:50.202Z,3.33
2022-10-30T03:27:52.731Z,3.97
2022-10-30T03:32:54.376Z,4.43
2022-10-30T03:37:56.029Z,4.47
2022-10-30T03:42:57.796Z,3.55
2022-10-30T03:48:03.233Z,3.55
2022-10-30T03:53:04.927Z,4.63
2022-10-30T03:58:07.439Z,4.05
2022-10-30T04:03:10.047Z,4.53
2022-10-30T04:08:13.839Z,4.53
2022-10-30T04:13:17.882Z,4.70
2022-10-30T04:18:19.625Z,4.88
2022-10-30T04:23:22.345Z,5.57
2022-10-30T04:28:24.012Z,4.40
2022-10-30T04:33:25.744Z,4.88
2022-10-30T04:38:27.476Z,4.85
2022-10-30T04:43:29.181Z,4.72
2022-10-30T04:48:30.827Z,4.35
2022-10-30T04:53:32.507Z,4.13
2022-10-30T04:58:34.296Z,4.15
2022-10-30T05:03:36.021Z,5.28
2022-10-30T05:08:37.711Z,5.90
2022-10-30T05:13:39.377Z,4.45
2022-10-30T05:18:41.082Z,4.88
2022-10-30T05:23:42.758Z,4.30
2022-10-30T05:28:44.463Z,4.25
2022-10-30T05:33:46.111Z,4.47
2022-10-30T05:38:48.102Z,4.30
2022-10-30T05:43:49.761Z,5.35
2022-10-30T05:48:51.429Z,5.40
2022-10-30T05:53:53.122Z,4.60
2022-10-30T05:58:54.797Z,5.22
2022-10-30T06:03:57.525Z,4.90
2022-10-30T06:08:59.215Z,3.70
2022-10-30T06:14:00.922Z,3.70
2022-10-30T06:19:02.587Z,3.97
2022-10-30T06:24:04.624Z,4.10
2022-10-30T06:29:06.729Z,4.33
2022-10-30T06:34:08.391Z,4.25
2022-10-30T06:39:10.038Z,3.83
2022-10-30T06:44:11.727Z,4.22
2022-10-30T06:49:13.454Z,4.05
2022-10-30T06:54:15.103Z,5.10
2022-10-30T06:59:16.760Z,3.67
2022-10-30T07:04:18.541Z,4.50
2022-10-30T07:09:20.375Z,4.07
2022-10-30T07:14:22.064Z,4.07
2022-10-30T07:19:23.872Z,3.85
2022-10-30T07:24:25.578Z,4.05
2022-10-30T07:29:27.452Z,4.03
2022-10-30T07:34:29.157Z,3.10
2022-10-30T07:39:30.847Z,3.53
2022-10-30T07:44:32.550Z,4.03
2022-10-30T07:49:34.237Z,4.17
2022-10-30T07:54:35.955Z,4.27
2022-10-30T07:59:37.687Z,4.77
2022-10-30T08:04:39.434Z,4.03
2022-10-30T08:09:41.124Z,5.00
2022-10-30T08:14:42.794Z,4.30
2022-10-30T08:19:44.522Z,3.22
2022-10-30T08:24:46.201Z,3.80
2022-10-30T08:29:47.877Z,3.60
2022-10-30T08:34:49.526Z,3.65
2022-10-30T08:39:51.202Z,4.28
2022-10-30T08:44:52.877Z,3.70
2022-10-30T08:49:54.553Z,3.43
2022-10-30T08:54:56.288Z,3.92
2022-10-30T08:59:57.999Z,3.60
2022-10-30T09:05:00.417Z,3.83
2022-10-30T09:10:02.439Z,3.03
2022-10-30T09:15:04.556Z,3.20
2022-10-30T09:20:06.473Z,3.15
2022-10-30T09:25:09.081Z,3.80
2022-10-30T09:30:12.025Z,3.08
2022-10-30T09:35:13.706Z,3.53
2022-10-30T09:40:22.299Z,2.88
2022-10-30T09:45:30.535Z,3.60
2022-10-30T09:50:49.613Z,3.40
2022-10-30T09:56:19.415Z,3.80
2022-10-30T10:01:53.247Z,3.80
2022-10-30T10:07:04.408Z,3.70
2022-10-30T10:12:29.650Z,3.67
2022-10-30T10:17:38.719Z,3.92
2022-10-30T10:22:43.340Z,3.20
2022-10-30T10:28:00.152Z,3.35
2022-10-30T10:33:17.725Z,4.30
2022-10-30T10:38:34.177Z,3.67
2022-10-30T10:43:53.503Z,4.18
2022-10-30T10:49:09.151Z,4.32
2022-10-30T10:54:28.163Z,3.87
2022-10-30T10:59:34.815Z,3.30
2022-10-30T11:04:45.441Z,3.70
2022-10-30T11:09:52.596Z,3.58
2022-10-30T11:14:54.242Z,4.30
2022-10-30T11:20:03.158Z,3.05
2022-10-30T11:25:25.323Z,3.23
2022-10-30T11:30:30.549Z,4.05
2022-10-30T11:35:42.282Z,3.50
2022-10-30T11:40:51.367Z,3.35
2022-10-30T11:45:54.031Z,4.13
2022-10-30T11:51:04.776Z,3.30
2022-10-30T11:56:23.505Z,3.73
2022-10-30T12:01:51.183Z,3.90
2022-10-30T12:07:08.566Z,4.78
2022-10-30T12:12:31.620Z,3.33
2022-10-30T12:17:33.414Z,4.33
2022-10-30T12:22:35.721Z,4.18
2022-10-30T12:27:37.691Z,4.67
2022-10-30T12:33:09.225Z,3.93
2022-10-30T12:38:36.963Z,3.78
2022-10-30T12:43:41.610Z,4.13
2022-10-30T12:49:01.856Z,3.60
2022-10-30T12:54:26.499Z,4.45
2022-10-30T13:00:02.253Z,4.27
2022-10-30T13:05:27.410Z,4.82
2022-10-30T13:10:42.779Z,4.00
2022-10-30T13:15:51.753Z,4.85
2022-10-30T13:21:01.698Z,3.88
2022-10-30T13:26:19.081Z,5.45
2022-10-30T13:31:26.227Z,4.43
2022-10-30T13:42:19.200Z,3.73
2022-10-30T13:47:27.433Z,3.50
2022-10-30T13:52:32.703Z,3.60
2022-10-30T13:57:45.622Z,4.10
2022-10-30T14:02:59.523Z,4.32
2022-10-30T14:08:22.702Z,5.07
2022-10-30T14:13:47.727Z,6.25
2022-10-30T14:18:59.824Z,15.02
2022-10-30T14:24:29.088Z,4.95
2022-10-30T14:29:33.935Z,7.67
2022-10-30T14:34:51.168Z,6.17
2022-10-30T14:39:54.350Z,5.60
2022-10-30T14:45:15.256Z,6.18
2022-10-30T14:50:41.799Z,6.35
2022-10-30T14:56:07.536Z,6.57
2022-10-30T15:01:09.293Z,7.53
2022-10-30T15:06:36.045Z,7.75
2022-10-30T15:12:01.961Z,6.90
2022-10-30T15:17:04.143Z,6.15
2022-10-30T15:22:05.852Z,6.25
2022-10-30T15:27:11.992Z,6.53
2022-10-30T15:32:18.171Z,7.03
2022-10-30T15:37:19.837Z,5.97
2022-10-30T15:42:21.865Z,6.38
2022-10-30T15:47:23.571Z,7.90
2022-10-30T15:52:30.653Z,6.28
2022-10-30T15:58:01.769Z,7.45
2022-10-30T16:03:04.619Z,6.75
2022-10-30T16:08:15.197Z,6.80
2022-10-30T16:13:19.470Z,6.43
2022-10-30T16:18:27.673Z,7.53
2022-10-30T16:23:30.534Z,7.75
2022-10-30T16:28:34.829Z,7.78
2022-10-30T16:33:37.251Z,6.68
2022-10-30T16:38:39.207Z,7.10
2022-10-30T16:43:43.330Z,7.95
2022-10-30T16:49:00.533Z,8.05
2022-10-30T16:54:02.261Z,7.93
2022-10-30T16:59:15.106Z,8.00
2022-10-30T17:04:16.988Z,7.72
2022-10-30T17:09:24.370Z,8.43
2022-10-30T17:14:26.162Z,8.37
2022-10-30T17:19:30.538Z,8.43
2022-10-30T17:24:36.845Z,7.45
2022-10-30T17:29:38.452Z,8.52
2022-10-30T17:34:40.158Z,7.28
2022-10-30T17:39:41.912Z,8.43
2022-10-30T17:44:43.930Z,9.93
2022-10-30T17:49:45.684Z,12.50
2022-10-30T17:54:47.351Z,12.73
2022-10-30T17:59:49.027Z,11.83
2022-10-30T18:04:51.123Z,9.05
2022-10-30T18:09:52.799Z,8.53
2022-10-30T18:14:54.456Z,7.85
2022-10-30T18:19:56.092Z,6.95
2022-10-30T18:25:00.284Z,7.13
2022-10-30T18:30:01.982Z,7.15
2022-10-30T18:35:19.698Z,8.30
2022-10-30T18:40:22.672Z,8.15
2022-10-30T18:45:27.580Z,7.50
2022-10-30T18:50:30.953Z,8.20
2022-10-30T18:55:35.501Z,8.53
2022-10-30T19:01:10.053Z,8.75
2022-10-30T19:06:01.201Z,7.70
2022-10-30T19:11:02.986Z,7.20
2022-10-30T19:16:14.147Z,7.57
2022-10-30T19:21:18.942Z,7.57
2022-10-30T19:26:20.946Z,7.77
2022-10-30T19:31:22.669Z,7.53
2022-10-30T19:36:29.172Z,8.23
2022-10-30T19:46:37.875Z,8.82
2022-10-30T19:51:39.608Z,7.88
2022-10-30T19:56:41.393Z,9.90
2022-10-30T20:01:43.430Z,9.02
2022-10-30T20:06:45.155Z,8.80
2022-10-30T20:11:46.919Z,9.13
2022-10-30T20:16:48.592Z,9.18
2022-10-30T20:21:50.279Z,7.78
2022-10-30T20:26:52.995Z,7.85
2022-10-30T20:31:54.729Z,7.60
2022-10-30T20:36:56.388Z,8.63
2022-10-30T20:41:58.139Z,8.83
2022-10-30T20:46:59.821Z,7.87
2022-10-30T20:52:01.583Z,7.22
2022-10-30T20:57:03.323Z,6.97
2022-10-30T21:02:05.347Z,7.60
2022-10-30T21:07:07.194Z,7.28
2022-10-30T21:12:08.888Z,8.40
2022-10-30T21:17:10.599Z,5.60
2022-10-30T21:22:12.307Z,6.78
2022-10-30T21:27:13.998Z,6.03
2022-10-30T21:32:15.843Z,6.00
2022-10-30T21:37:17.542Z,5.35
2022-10-30T21:42:19.316Z,4.93
2022-10-30T21:47:21.079Z,5.67
2022-10-30T21:52:22.794Z,5.57
2022-10-30T21:57:24.750Z,5.60
2022-10-30T22:02:26.450Z,6.17
2022-10-30T22:07:28.150Z,5.57
2022-10-30T22:12:29.861Z,5.70
2022-10-30T22:17:34.814Z,5.63
2022-10-30T22:22:36.887Z,4.20
2022-10-30T22:27:38.560Z,4.53
2022-10-30T22:32:40.643Z,4.23
2022-10-30T22:37:42.303Z,5.07
2022-10-30T22:42:43.985Z,4.68
2022-10-30T22:47:45.654Z,4.40
2022-10-30T22:52:47.348Z,4.13
2022-10-30T22:57:53.179Z,4.47
2022-10-30T23:02:55.116Z,4.50
2022-10-30T23:07:56.814Z,3.47
2022-10-30T23:12:58.808Z,3.80
2022-10-30T23:18:01.078Z,4.32
2022-10-30T23:23:04.621Z,4.13
2022-10-30T23:28:11.059Z,3.85
2022-10-30T23:33:12.919Z,4.03
2022-10-30T23:38:14.649Z,4.30
2022-10-30T23:43:16.669Z,3.90
2022-10-30T23:48:18.555Z,4.30
2022-10-30T23:53:20.238Z,4.22
2022-10-30T23:58:22.120Z,4.22
